Time;durP1;ratioP1;P1;durP2;ratioP2;P2;SDS_P1;SDS_P2;PMS_P1;PMS_P2;Temp;Humidity;BMP_temperature;BMP_pressure;BME280_temperature;BME280_humidity;BME280_pressure;Samples;Min_cycle;Max_cycle;Signal;HPM_P1;HPM_P2
2022/01/25 00:28:44;;;;;;;75.30;23.40;;;;;;;12.15;45.11;102544.78;3978219;32;15021892;-69
2022/01/25 00:31:13;;;;;;;79.97;22.52;;;;;;;12.15;45.11;102544.78;4426564;32;20140;-69
2022/01/25 00:33:41;;;;;;;75.40;22.60;;;;;;;11.64;45.70;102536.75;4427138;32;20073;-69
2022/01/25 00:36:10;;;;;;;81.40;23.40;;;;;;;11.57;46.07;102534.69;4425709;32;20045;-69
2022/01/25 00:38:36;;;;;;;74.97;22.85;;;;;;;11.60;46.28;102531.06;4427153;32;20587;-69
2022/01/25 00:41:02;;;;;;;90.47;23.60;;;;;;;11.14;46.95;102521.75;4427150;32;20826;-69
2022/01/25 00:43:28;;;;;;;88.93;24.70;;;;;;;11.41;46.63;102511.75;4426503;32;20026;-69
2022/01/25 00:45:58;;;;;;;67.18;22.15;;;;;;;11.48;46.48;102510.94;4429573;32;20070;-69
2022/01/25 00:49:00;;;;;;;84.10;23.05;;;;;;;11.13;46.98;102513.72;4430979;32;20045;-69
2022/01/25 00:51:21;;;;;;;;;;;;;;;11.03;47.30;102526.59;4423839;32;20063;-69
2022/01/25 00:54:12;;;;;;;76.12;22.35;;;;;;;11.60;45.94;102516.19;4426902;32;19984;-69
2022/01/25 00:56:38;;;;;;;74.93;23.38;;;;;;;11.35;46.63;102523.84;4424781;32;20479;-69
2022/01/25 00:59:07;;;;;;;73.37;21.92;;;;;;;11.32;46.67;102521.81;4422050;32;20085;-69
2022/01/25 01:01:35;;;;;;;66.43;20.75;;;;;;;11.60;46.13;102519.81;4421560;32;20197;-69
2022/01/25 01:04:01;;;;;;;82.70;22.92;;;;;;;11.54;46.09;102524.22;4428301;32;20021;-69
2022/01/25 01:06:28;;;;;;;76.10;22.13;;;;;;;11.29;46.66;102517.75;4424831;32;20064;-69
2022/01/25 01:08:54;;;;;;;71.22;22.08;;;;;;;11.59;45.96;102517.38;4425842;32;20097;-69
2022/01/25 01:11:35;;;;;;;65.93;19.40;;;;;;;11.73;45.46;102518.22;4429179;32;20034;-69
2022/01/25 01:38:54;;;;;;;63.38;19.02;;;;;;;12.02;44.06;102524.63;3971863;31;15708731;-68
2022/01/25 01:43:59;;;;;;;59.08;19.40;;;;;;;11.56;45.33;102516.19;4452318;32;20034;-68
2022/01/25 01:46:56;;;;;;;62.42;19.75;;;;;;;11.81;44.64;102516.19;4449134;32;20308;-68
2022/01/25 01:49:11;;;;;;;64.93;19.85;;;;;;;11.60;44.61;102521.84;4449770;32;20135;-68
2022/01/25 01:51:42;;;;;;;60.72;20.85;;;;;;;11.65;44.58;102512.97;4449420;32;20093;-68
2022/01/25 01:56:44;;;;;;;63.15;20.33;;;;;;;12.22;43.96;102510.88;3981491;32;15031966;-69
2022/01/25 01:59:13;;;;;;;64.22;19.48;;;;;;;12.22;43.96;102510.88;4428718;32;20064;-69
2022/01/25 02:01:40;;;;;;;65.65;20.08;;;;;;;12.08;43.85;102514.53;4429957;32;20389;-69
2022/01/25 02:04:09;;;;;;;66.22;19.75;;;;;;;11.96;44.30;102509.31;4432419;32;20077;-69
2022/01/25 02:06:35;;;;;;;62.28;19.50;;;;;;;11.89;44.18;102509.34;4428635;32;20086;-69
2022/01/25 02:09:00;;;;;;;65.28;20.77;;;;;;;11.82;44.40;102509.38;4430512;32;20544;-69
2022/01/25 02:11:27;;;;;;;64.25;19.83;;;;;;;12.09;43.71;102496.44;4429439;32;20030;-69
2022/01/25 02:13:53;;;;;;;62.17;20.45;;;;;;;11.95;44.20;102493.63;4428531;32;20090;-69
2022/01/25 02:16:39;;;;;;;70.72;21.17;;;;;;;12.01;43.85;102497.63;4428923;32;20021;-69
2022/01/25 02:24:39;;;;;;;55.63;18.48;;;;;;;12.13;43.53;102496.41;4429140;32;20092;-69
2022/01/25 02:27:05;;;;;;;55.85;18.60;;;;;;;12.06;43.61;102492.38;4428532;32;20087;-69
2022/01/25 02:29:31;;;;;;;65.25;20.55;;;;;;;12.31;43.60;102495.16;4428085;32;20506;-69
2022/01/25 02:31:57;;;;;;;63.05;18.37;;;;;;;12.18;43.61;102493.94;4428151;32;20206;-69
2022/01/25 02:34:24;;;;;;;55.65;17.70;;;;;;;12.07;43.72;102499.66;4428985;32;20072;-69
2022/01/25 02:37:08;;;;;;;57.05;18.05;;;;;;;12.18;43.74;102498.81;4427320;32;20069;-69
2022/01/25 02:39:37;;;;;;;58.25;18.35;;;;;;;12.56;42.93;102487.37;4429696;32;20052;-69
2022/01/25 02:42:04;;;;;;;56.05;16.50;;;;;;;12.20;43.24;102493.53;4429941;32;20042;-69
2022/01/25 02:44:30;;;;;;;55.72;17.83;;;;;;;12.05;43.54;102492.78;4430238;32;20087;-69
2022/01/25 02:49:38;;;;;;;51.08;15.90;;;;;;;12.71;42.38;102503.59;3978225;32;15023345;-69
2022/01/25 02:52:05;;;;;;;52.62;17.52;;;;;;;12.72;42.40;102495.38;4428019;32;20071;-69
2022/01/25 02:54:31;;;;;;;44.92;14.48;;;;;;;12.61;42.74;102494.63;4427790;32;20076;-69
2022/01/25 02:56:56;;;;;;;50.00;16.60;;;;;;;12.37;42.69;102498.34;4425731;32;20069;-69
2022/01/25 02:59:22;;;;;;;51.72;15.82;;;;;;;12.34;42.54;102497.16;4423759;32;20041;-69
2022/01/25 03:01:49;;;;;;;46.92;16.58;;;;;;;12.23;42.38;102502.00;4423825;32;20093;-69
2022/01/25 03:04:17;;;;;;;44.33;15.15;;;;;;;12.48;42.48;102499.09;4424706;32;20037;-69
2022/01/25 03:06:43;;;;;;;50.38;16.17;;;;;;;12.46;42.55;102493.88;4424468;32;20089;-69
2022/01/25 03:09:09;;;;;;;47.25;15.32;;;;;;;12.05;43.21;102492.78;4427851;32;20045;-69
2022/01/25 03:11:35;;;;;;;46.00;15.13;;;;;;;12.13;42.62;102488.75;4425633;32;20076;-69
2022/01/25 03:14:06;;;;;;;50.55;16.40;;;;;;;12.01;42.86;102487.16;4426310;32;20623;-69
2022/01/25 03:20:01;;;;;;;46.92;14.95;;;;;;;12.54;42.30;102483.34;3984314;31;15015166;-69
2022/01/25 03:22:13;;;;;;;47.72;14.73;;;;;;;12.54;42.30;102483.34;4431603;32;20511;-69
2022/01/25 03:24:39;;;;;;;50.92;15.20;;;;;;;12.11;42.66;102474.22;4433059;32;20418;-69
2022/01/25 03:27:05;;;;;;;49.38;15.40;;;;;;;11.79;43.01;102474.28;4432909;32;20112;-69
2022/01/25 03:29:31;;;;;;;42.95;15.05;;;;;;;11.79;43.33;102471.47;4432074;32;20026;-69
2022/01/25 03:31:57;;;;;;;45.22;15.95;;;;;;;11.83;43.29;102472.28;4433451;32;20084;-69
2022/01/25 03:34:22;;;;;;;49.65;15.68;;;;;;;12.05;42.86;102471.03;4428057;32;20103;-69
2022/01/25 03:36:49;;;;;;;51.15;16.95;;;;;;;11.89;42.98;102479.12;4445951;32;20072;-69
2022/01/25 03:39:15;;;;;;;43.35;15.25;;;;;;;11.99;42.87;102469.81;4432051;32;20475;-69
2022/01/25 03:41:40;;;;;;;47.13;15.60;;;;;;;12.12;42.61;102466.56;4431849;32;20073;-69
2022/01/25 03:44:06;;;;;;;51.08;17.12;;;;;;;12.18;42.65;102459.28;4428630;32;20579;-69
2022/01/25 03:52:03;;;;;;;48.87;16.25;;;;;;;12.24;42.59;102452.81;4433170;32;20343;-69
2022/01/25 03:54:29;;;;;;;51.88;17.50;;;;;;;12.56;42.42;102449.84;4432125;32;20319;-69
2022/01/25 03:56:55;;;;;;;50.08;17.02;;;;;;;12.43;42.20;102449.53;4426612;32;20042;-69
2022/01/25 03:59:21;;;;;;;52.95;18.23;;;;;;;12.37;42.17;102450.34;4433229;32;20406;-69
2022/01/25 04:01:47;;;;;;;49.20;16.67;;;;;;;12.03;42.93;102445.22;4428548;32;20065;-69
2022/01/25 04:04:16;;;;;;;51.60;16.92;;;;;;;12.27;42.22;102451.19;4436401;32;20080;-69
2022/01/25 04:06:47;;;;;;;47.62;15.95;;;;;;;12.26;41.91;102461.69;4433754;32;20536;-69
2022/01/25 04:09:13;;;;;;;46.10;16.25;;;;;;;12.44;42.15;102455.97;4425287;32;20029;-69
2022/01/25 04:11:39;;;;;;;46.53;16.23;;;;;;;12.32;42.34;102462.88;4430484;32;20115;-69
2022/01/25 04:14:05;;;;;;;42.97;15.48;;;;;;;12.24;42.54;102452.81;4434721;32;20046;-69
2022/01/25 04:16:41;;;;;;;53.25;16.62;;;;;;;12.47;42.23;102449.50;4433500;32;20493;-69
2022/01/25 04:19:12;;;;;;;51.00;16.58;;;;;;;12.44;41.87;102455.97;4434787;32;20128;-69
2022/01/25 04:27:00;;;;;;;;;;;;;;;12.92;41.69;102454.88;4429194;32;20101;-69
2022/01/25 04:29:26;;;;;;;57.08;17.92;;;;;;;12.79;41.42;102456.56;4430546;32;20290;-69
2022/01/25 04:31:53;;;;;;;54.20;17.35;;;;;;;12.67;41.50;102459.09;4430330;32;20049;-69
2022/01/25 04:56:25;;;;;;;54.22;19.15;;;;;;;12.75;41.49;102450.16;3978320;32;15024577;-69
2022/01/25 05:01:38;;;;;;;51.67;18.73;;;;;;;12.52;41.87;102440.59;4427789;32;20486;-69
2022/01/25 05:04:07;;;;;;;57.72;19.23;;;;;;;12.44;41.78;102436.19;4428895;32;20021;-69
2022/01/25 05:06:33;;;;;;;55.63;19.50;;;;;;;12.22;42.24;102437.50;4428797;32;20491;-69
2022/01/25 05:09:09;;;;;;;52.10;18.10;;;;;;;12.27;42.08;102431.44;4426427;32;20073;-69
2022/01/25 05:11:39;;;;;;;59.00;19.23;;;;;;;12.22;42.10;102438.31;4429002;32;20080;-69
2022/01/25 05:17:00;;;;;;;58.35;19.62;;;;;;;12.10;42.49;102441.56;3950391;32;15783425;-69
2022/01/25 05:22:26;;;;;;;61.80;19.85;;;;;;;12.12;42.40;102441.94;4426292;32;20136;-69
2022/01/25 05:24:53;;;;;;;58.83;18.08;;;;;;;12.28;42.26;102433.84;4428163;32;20624;-69
2022/01/25 05:27:22;;;;;;;54.90;18.77;;;;;;;12.21;42.04;102441.53;4425046;32;20042;-69
2022/01/25 05:29:48;;;;;;;57.47;19.00;;;;;;;12.47;41.77;102432.53;4427702;32;20103;-69
2022/01/25 05:32:14;;;;;;;52.50;18.17;;;;;;;12.21;41.67;102435.91;4428300;32;20141;-69
2022/01/25 05:34:40;;;;;;;59.00;18.17;;;;;;;12.26;42.02;102436.28;4428624;32;20046;-69
2022/01/25 05:37:07;;;;;;;59.30;19.52;;;;;;;12.05;42.01;102434.34;4426875;32;20077;-69
2022/01/25 05:39:36;;;;;;;54.50;16.23;;;;;;;12.06;42.43;102432.31;4426352;32;20435;-69
2022/01/25 05:42:41;;;;;;;54.80;17.17;;;;;;;11.78;42.86;102424.72;4424635;32;20084;-69
2022/01/25 05:47:31;;;;;;;62.60;18.98;;;;;;;12.06;41.47;102433.13;3979985;32;15024082;-69
2022/01/25 05:49:59;;;;;;;55.38;19.20;;;;;;;11.89;42.42;102436.00;4430497;32;20087;-69
2022/01/25 05:52:27;;;;;;;53.63;19.00;;;;;;;11.76;42.56;102427.13;4428235;32;20438;-69
2022/01/25 05:54:52;;;;;;;53.47;17.98;;;;;;;11.58;42.90;102434.00;4429464;32;20088;-69
2022/01/25 05:57:18;;;;;;;58.95;18.90;;;;;;;11.50;42.63;102435.22;4430307;32;20097;-69
2022/01/25 05:59:44;;;;;;;53.60;18.08;;;;;;;11.38;42.52;102441.25;4431162;32;20222;-69
2022/01/25 06:02:10;;;;;;;59.05;17.50;;;;;;;11.48;42.87;102434.81;4429247;32;20125;-69
2022/01/25 06:04:36;;;;;;;58.55;17.87;;;;;;;11.50;42.71;102452.12;4426380;32;20060;-69
2022/01/25 06:07:04;;;;;;;57.55;17.62;;;;;;;11.50;42.56;102438.84;4430813;32;20104;-69
2022/01/25 06:09:29;;;;;;;57.83;17.73;;;;;;;11.02;43.63;102440.44;4428830;32;20153;-69
2022/01/25 06:11:55;;;;;;;62.70;18.62;;;;;;;11.08;43.26;102446.50;4431531;32;20070;-69
2022/01/25 06:14:21;;;;;;;55.53;18.08;;;;;;;10.88;43.62;102445.25;4427287;32;20579;-70
2022/01/25 06:16:48;;;;;;;64.12;19.62;;;;;;;10.97;43.10;102442.84;4429273;32;20073;-69
2022/01/25 06:19:14;;;;;;;65.00;20.12;;;;;;;10.71;43.92;102451.66;4432042;32;20033;-69
2022/01/25 06:21:40;;;;;;;63.25;18.25;;;;;;;10.59;44.21;102447.22;4430073;32;20061;-69
2022/01/25 06:24:06;;;;;;;61.00;19.83;;;;;;;10.71;44.29;102446.03;4428930;32;20041;-69
2022/01/25 06:26:31;;;;;;;71.95;21.10;;;;;;;10.53;44.47;102445.16;4428600;32;20051;-69
2022/01/25 06:28:57;;;;;;;60.72;19.50;;;;;;;10.45;44.61;102449.97;4428708;32;20076;-69
2022/01/25 06:31:23;;;;;;;59.25;17.20;;;;;;;10.28;44.90;102447.09;4429226;32;20460;-69
2022/01/25 06:33:49;;;;;;;65.12;19.98;;;;;;;10.32;44.91;102447.88;4429830;32;20104;-69
2022/01/25 06:36:15;;;;;;;62.85;20.33;;;;;;;10.42;44.70;102435.88;4429634;32;20030;-69
2022/01/25 06:38:41;;;;;;;60.20;19.85;;;;;;;10.24;44.90;102444.25;4429810;32;20033;-69
2022/01/25 06:41:09;;;;;;;70.40;20.27;;;;;;;10.27;44.97;102442.66;4431207;32;20077;-69
2022/01/25 06:43:36;;;;;;;62.05;19.48;;;;;;;10.36;44.82;102445.88;4428537;32;20094;-69
2022/01/25 06:46:03;;;;;;;65.37;20.02;;;;;;;10.57;44.64;102448.78;4426977;32;20227;-69
2022/01/25 06:48:31;;;;;;;78.00;21.30;;;;;;;10.59;44.33;102460.47;4429881;32;20026;-69
2022/01/25 06:50:57;;;;;;;71.03;20.30;;;;;;;10.78;44.24;102454.47;4426620;32;20717;-69
2022/01/25 06:53:23;;;;;;;69.10;21.08;;;;;;;10.67;44.21;102465.72;4426562;32;20637;-69
2022/01/25 06:55:48;;;;;;;64.50;20.23;;;;;;;10.90;43.59;102463.38;4428368;32;20126;-69
2022/01/25 06:58:14;;;;;;;64.15;19.62;;;;;;;10.89;43.60;102469.41;4422625;32;20157;-69
2022/01/25 07:00:40;;;;;;;75.28;21.08;;;;;;;10.76;43.42;102462.50;4414166;32;20509;-69
2022/01/25 07:03:06;;;;;;;75.62;22.73;;;;;;;10.88;43.68;102453.69;4419465;32;20072;-69
2022/01/25 07:05:33;;;;;;;75.80;22.65;;;;;;;10.97;43.09;102456.94;4418115;32;20065;-69
2022/01/25 07:07:59;;;;;;;65.60;19.80;;;;;;;10.99;42.99;102458.16;4416349;32;20045;-70
2022/01/25 07:10:24;;;;;;;69.90;21.40;;;;;;;11.05;43.24;102456.53;4420669;32;20056;-69
2022/01/25 07:12:50;;;;;;;73.43;21.77;;;;;;;10.74;43.52;102454.47;4420474;32;20104;-69
2022/01/25 07:15:17;;;;;;;73.37;22.87;;;;;;;11.16;43.01;102460.19;4418794;32;20207;-69
2022/01/25 07:17:43;;;;;;;73.03;22.35;;;;;;;11.00;43.16;102458.94;4417302;32;20068;-69
2022/01/25 07:20:10;;;;;;;71.03;21.83;;;;;;;11.02;42.89;102457.34;4419933;32;20144;-69
2022/01/25 07:22:37;;;;;;;75.95;23.92;;;;;;;10.93;43.61;102467.41;4417795;32;20128;-69
2022/01/25 07:25:06;;;;;;;69.85;21.48;;;;;;;10.95;43.25;102468.59;4421320;32;20139;-69
2022/01/25 07:27:31;;;;;;;67.18;21.65;;;;;;;11.04;43.13;102465.38;4415651;32;20081;-69
2022/01/25 07:29:58;;;;;;;83.00;24.10;;;;;;;10.73;43.34;102458.50;4416712;32;20110;-69
2022/01/25 07:32:23;;;;;;;73.25;25.35;;;;;;;10.68;43.27;102461.69;4416084;32;20038;-69
2022/01/25 07:34:49;;;;;;;73.37;23.77;;;;;;;10.98;43.37;102459.34;4414504;32;20065;-69
2022/01/25 07:37:15;;;;;;;80.95;23.50;;;;;;;11.10;43.12;102456.16;4415670;32;20065;-70
2022/01/25 07:39:42;;;;;;;79.45;25.35;;;;;;;10.89;43.05;102461.75;4413966;32;20038;-70
2022/01/25 07:42:09;;;;;;;78.95;25.00;;;;;;;10.52;43.87;102452.78;4415711;32;20100;-69
2022/01/25 07:44:37;;;;;;;80.47;22.67;;;;;;;10.73;43.79;102460.50;4410478;32;20070;-69
2022/01/25 07:47:03;;;;;;;92.20;26.77;;;;;;;10.78;43.47;102455.31;4405047;32;20088;-70
2022/01/25 07:49:32;;;;;;;87.30;26.75;;;;;;;10.93;43.30;102459.75;4410904;32;20179;-70
2022/01/25 07:51:59;;;;;;;89.15;28.30;;;;;;;11.07;43.48;102462.59;4411527;32;20099;-70
2022/01/25 07:54:26;;;;;;;97.37;27.50;;;;;;;11.10;42.96;102463.78;4414113;32;20046;-69
2022/01/25 07:56:53;;;;;;;95.47;29.60;;;;;;;11.15;43.46;102474.66;4414034;32;20138;-69
2022/01/25 07:59:18;;;;;;;101.43;28.80;;;;;;;11.29;42.49;102469.06;4410433;32;20081;-69
2022/01/25 08:01:45;;;;;;;102.43;29.70;;;;;;;11.20;43.02;102475.06;4407269;32;20081;-68
2022/01/25 08:04:13;;;;;;;99.82;29.30;;;;;;;11.35;42.48;102475.91;4409666;32;20037;-69
2022/01/25 08:06:40;;;;;;;89.32;28.45;;;;;;;11.61;42.54;102475.50;4405540;32;20554;-69
2022/01/25 08:09:07;;;;;;;113.32;31.52;;;;;;;11.60;42.26;102479.53;4403747;32;20467;-69
2022/01/25 08:11:34;;;;;;;99.82;30.12;;;;;;;11.79;41.83;102481.97;4408324;32;20112;-71
2022/01/25 08:14:11;;;;;;;91.93;29.45;;;;;;;11.74;41.73;102490.81;4411075;32;20105;-69
2022/01/25 08:16:40;;;;;;;89.28;30.30;;;;;;;11.78;41.44;102492.44;4412381;32;20711;-70
2022/01/25 08:19:06;;;;;;;98.07;30.33;;;;;;;11.86;41.15;102499.69;4413259;32;20038;-70
2022/01/25 08:21:32;;;;;;;98.72;28.98;;;;;;;11.48;41.75;102496.84;4405443;32;20068;-69
2022/01/25 08:23:58;;;;;;;94.55;29.35;;;;;;;11.66;41.21;102501.31;4402987;32;20070;-69
2022/01/25 08:26:24;;;;;;;90.85;29.58;;;;;;;11.77;41.43;102504.94;4397782;32;20099;-69
2022/01/25 08:28:50;;;;;;;92.10;26.98;;;;;;;11.88;41.18;102514.16;4406033;32;20081;-69
2022/01/25 08:31:16;;;;;;;86.93;27.95;;;;;;;11.60;41.54;102507.72;4403474;32;20077;-69
2022/01/25 08:33:42;;;;;;;92.80;28.98;;;;;;;11.56;41.80;102510.53;4403630;32;20106;-69
2022/01/25 08:36:08;;;;;;;101.85;31.37;;;;;;;11.56;41.99;102506.91;4405106;32;20486;-70
2022/01/25 08:38:34;;;;;;;101.25;31.27;;;;;;;11.63;42.01;102509.78;4402899;32;20461;-70
2022/01/25 08:40:59;;;;;;;89.28;28.08;;;;;;;11.60;41.73;102513.38;4406303;32;20085;-68
2022/01/25 08:43:25;;;;;;;94.70;28.50;;;;;;;11.40;41.63;102509.31;4405801;32;20363;-69
2022/01/25 08:45:51;;;;;;;84.57;28.25;;;;;;;11.25;41.95;102497.22;4403347;32;20111;-68
2022/01/25 08:48:17;;;;;;;97.12;28.17;;;;;;;11.29;41.75;102498.03;4402473;32;20141;-69
2022/01/25 08:50:43;;;;;;;107.22;30.15;;;;;;;11.25;42.21;102505.69;4404484;32;20089;-71
2022/01/25 08:53:11;;;;;;;97.80;29.48;;;;;;;11.15;42.13;102503.66;4403653;32;20272;-70
2022/01/25 08:55:39;;;;;;;101.15;31.05;;;;;;;11.42;41.73;102493.59;4403457;32;20141;-70
2022/01/25 08:58:05;;;;;;;91.40;28.35;;;;;;;11.48;41.82;102497.63;4407137;32;21137;-71
2022/01/25 09:00:31;;;;;;;101.53;30.30;;;;;;;11.30;42.33;102491.22;4404421;32;20085;-71
2022/01/25 09:02:58;;;;;;;110.60;30.90;;;;;;;11.33;42.10;102496.03;4405857;32;20073;-68
2022/01/25 09:05:23;;;;;;;99.35;29.48;;;;;;;11.25;42.21;102496.41;4405339;32;20066;-68
2022/01/25 09:07:49;;;;;;;97.03;29.60;;;;;;;11.51;41.73;102496.84;4409138;32;20088;-69
2022/01/25 09:10:15;;;;;;;92.12;28.30;;;;;;;11.54;42.12;102492.44;4405437;32;20073;-68
2022/01/25 09:12:41;;;;;;;98.65;29.90;;;;;;;11.70;41.80;102485.19;4408396;32;20073;-68
2022/01/25 09:15:07;;;;;;;115.40;31.40;;;;;;;11.69;41.71;102488.41;4405274;32;20560;-68
2022/01/25 09:17:33;;;;;;;112.62;33.65;;;;;;;11.79;41.62;102481.97;4408505;32;20452;-68
2022/01/25 09:20:01;;;;;;;109.05;33.25;;;;;;;11.97;41.22;102488.38;4404418;32;20060;-68
2022/01/25 09:22:27;;;;;;;112.68;36.63;;;;;;;12.01;41.22;102481.53;4407713;32;20464;-69
2022/01/25 09:24:53;;;;;;;112.88;35.20;;;;;;;12.07;41.19;102482.72;4405247;32;20040;-68
2022/01/25 09:27:19;;;;;;;111.30;34.10;;;;;;;11.93;40.71;102482.72;4406688;32;20087;-68
2022/01/25 09:29:45;;;;;;;116.07;36.97;;;;;;;12.13;40.73;102490.75;4405288;32;20094;-68
2022/01/25 09:32:10;;;;;;;119.55;35.35;;;;;;;11.89;40.88;102484.75;4405238;32;20148;-69
2022/01/25 09:34:37;;;;;;;123.82;37.92;;;;;;;11.84;41.00;102487.16;4406387;32;20293;-69
2022/01/25 09:37:03;;;;;;;122.90;37.20;;;;;;;11.76;41.37;102488.41;4405664;32;20445;-68
2022/01/25 09:39:29;;;;;;;127.07;40.45;;;;;;;11.84;41.36;102490.00;4405565;32;20666;-69
2022/01/25 09:41:55;;;;;;;119.62;37.45;;;;;;;11.79;41.19;102498.88;4406599;32;20082;-68
2022/01/25 09:44:23;;;;;;;133.00;38.85;;;;;;;11.38;42.11;102495.63;4406705;32;20620;-68
2022/01/25 09:46:53;;;;;;;122.93;38.83;;;;;;;11.40;41.93;102498.03;4402669;32;20081;-68
2022/01/25 09:49:20;;;;;;;124.28;38.10;;;;;;;11.76;41.43;102494.06;4407749;32;20376;-68
2022/01/25 09:51:49;;;;;;;126.65;38.72;;;;;;;11.63;41.11;102502.09;4405279;32;20716;-69
2022/01/25 09:54:15;;;;;;;134.87;40.20;;;;;;;11.82;41.42;102498.06;4406961;32;20137;-70
2022/01/25 09:56:41;;;;;;;132.18;40.95;;;;;;;11.94;41.12;102497.66;4401847;32;20026;-68
2022/01/25 09:59:06;;;;;;;134.98;42.10;;;;;;;11.83;41.18;102503.31;4407351;32;20093;-68
2022/01/25 10:01:32;;;;;;;124.32;40.50;;;;;;;11.97;41.00;102508.13;4404517;32;20120;-69
2022/01/25 10:04:00;;;;;;;128.52;41.75;;;;;;;11.82;41.28;102501.69;4406681;32;20711;-71
2022/01/25 10:06:32;;;;;;;123.82;41.55;;;;;;;12.17;40.21;102498.00;4406649;32;20100;-70
2022/01/25 10:08:58;;;;;;;136.45;42.40;;;;;;;12.26;40.80;102495.56;4405908;32;20073;-71
2022/01/25 10:11:25;;;;;;;133.02;40.08;;;;;;;12.12;40.74;102498.41;4406777;32;20414;-72
2022/01/25 10:13:56;;;;;;;127.62;41.72;;;;;;;12.24;40.48;102503.63;4405416;32;20560;-72
2022/01/25 10:16:38;;;;;;;128.23;42.67;;;;;;;11.85;41.00;102500.87;4407925;32;20437;-71
2022/01/25 10:19:06;;;;;;;128.00;41.53;;;;;;;12.18;40.65;102498.81;4405593;32;20502;-68
2022/01/25 10:21:35;;;;;;;127.97;41.92;;;;;;;12.21;40.62;102493.12;4405616;32;20509;-68
2022/01/25 10:29:19;;;;;;;135.77;41.50;;;;;;;12.43;40.90;102506.00;3969527;32;15021664;-69
2022/01/25 10:31:50;;;;;;;149.23;43.72;;;;;;;12.43;40.90;102506.00;4416686;32;20119;-68
2022/01/25 10:34:22;;;;;;;127.97;40.83;;;;;;;11.88;41.12;102504.91;4419227;32;20564;-68
2022/01/25 10:36:49;;;;;;;128.48;39.85;;;;;;;12.05;40.90;102499.25;4418862;32;20077;-68
2022/01/25 10:39:28;;;;;;;126.78;39.50;;;;;;;11.77;41.28;102498.47;4415997;32;20084;-69
2022/01/25 10:42:22;;;;;;;117.50;39.45;;;;;;;11.72;41.94;102505.31;4415321;32;20029;-69
2022/01/25 10:53:16;;;;;;;108.72;35.50;;;;;;;12.21;40.72;102490.31;3941192;32;15022237;-68
2022/01/25 10:55:44;;;;;;;115.80;37.88;;;;;;;12.21;40.72;102490.31;4400325;32;20081;-70
2022/01/25 10:58:10;;;;;;;121.15;38.60;;;;;;;11.90;41.74;102485.56;4401952;32;20669;-69
2022/01/25 11:00:42;;;;;;;110.40;37.10;;;;;;;12.26;40.94;102483.44;4400484;32;20523;-69
2022/01/25 11:03:08;;;;;;;107.75;35.92;;;;;;;12.42;40.60;102487.44;4401282;32;20593;-69
2022/01/25 11:05:38;;;;;;;99.87;33.60;;;;;;;11.98;41.57;102473.06;4399158;32;20118;-70
2022/01/25 11:08:13;;;;;;;96.32;32.78;;;;;;;12.10;41.17;102469.81;4395202;32;20137;-69
2022/01/25 11:10:48;;;;;;;94.65;31.33;;;;;;;12.07;40.98;102484.72;4398553;32;20085;-69
2022/01/25 11:16:12;;;;;;;96.32;32.65;;;;;;;12.54;40.95;102501.09;3969413;32;15023643;-70
2022/01/25 11:18:41;;;;;;;90.95;31.98;;;;;;;12.54;40.95;102501.09;4419297;32;20544;-73
2022/01/25 11:21:10;;;;;;;95.50;33.17;;;;;;;12.19;40.93;102500.41;4411322;32;20075;-73
2022/01/25 11:23:38;;;;;;;106.57;33.60;;;;;;;12.00;41.66;102501.69;4413792;32;20099;-72
2022/01/25 11:26:06;;;;;;;91.80;32.22;;;;;;;11.96;41.72;102503.69;4415912;32;20171;-71
2022/01/25 11:28:35;;;;;;;95.82;33.40;;;;;;;11.87;41.74;102504.09;4416869;32;20065;-73
2022/01/25 11:31:06;;;;;;;86.72;31.45;;;;;;;12.21;41.71;102503.66;4419426;32;20134;-70
2022/01/25 11:33:33;;;;;;;93.75;32.40;;;;;;;12.47;40.90;102503.97;4414738;32;21122;-71
2022/01/25 11:36:05;;;;;;;95.72;34.33;;;;;;;12.48;40.64;102493.44;4412849;32;20130;-71
2022/01/25 11:38:40;;;;;;;97.57;33.30;;;;;;;12.47;40.95;102492.66;4417412;32;20373;-70
2022/01/25 11:41:16;;;;;;;96.70;33.58;;;;;;;12.49;41.02;102493.03;4412136;32;20063;-70
2022/01/25 11:43:45;;;;;;;88.10;33.08;;;;;;;12.61;40.55;102489.75;4413059;32;20460;-70
2022/01/25 11:46:11;;;;;;;85.43;32.78;;;;;;;12.79;40.56;102484.06;4415248;32;20374;-70
2022/01/25 11:48:44;;;;;;;88.95;31.48;;;;;;;12.60;40.40;102488.16;4416122;32;20033;-69
2022/01/25 11:51:18;;;;;;;86.30;31.48;;;;;;;12.41;40.30;102491.47;4416639;32;21064;-68
2022/01/25 11:53:47;;;;;;;85.50;28.20;;;;;;;12.21;41.19;102483.87;4417107;32;20076;-69
2022/01/25 11:56:13;;;;;;;90.38;30.62;;;;;;;12.13;41.42;102473.81;4417540;32;20074;-68
2022/01/25 11:58:40;;;;;;;87.93;31.08;;;;;;;12.48;40.67;102477.31;4416636;32;20104;-68
2022/01/25 12:01:17;;;;;;;85.10;30.58;;;;;;;12.51;40.84;102470.03;4413835;32;20138;-69
2022/01/25 12:03:48;;;;;;;91.87;31.15;;;;;;;12.88;39.76;102462.59;4410981;32;20077;-69
2022/01/25 12:06:21;;;;;;;83.10;31.30;;;;;;;12.88;39.94;102471.06;4413695;32;20081;-69
2022/01/25 12:14:14;;;;;;;86.60;32.42;;;;;;;13.70;38.00;102461.56;3967885;32;15021324;-68
2022/01/25 12:16:44;;;;;;;86.10;32.15;;;;;;;13.70;38.00;102461.56;4417021;32;20125;-69
2022/01/25 12:19:13;;;;;;;81.32;30.75;;;;;;;13.29;38.89;102462.75;4413635;32;20095;-69
2022/01/25 12:29:40;;;;;;;76.35;27.83;;;;;;;13.91;37.85;102467.03;3965496;32;15028959;-69
2022/01/25 12:35:10;;;;;;;77.68;28.12;;;;;;;13.79;37.78;102456.22;3974598;31;15015965;-69
2022/01/25 12:45:58;;;;;;;87.50;26.55;;;;;;;14.08;37.04;102449.03;3966730;32;15028629;-70
2022/01/25 12:48:28;;;;;;;71.90;26.58;;;;;;;14.08;37.20;102437.72;4410519;32;20576;-72
2022/01/25 12:50:58;;;;;;;82.37;29.30;;;;;;;13.98;37.47;102429.34;4409955;32;20079;-71
2022/01/25 12:53:27;;;;;;;70.72;25.73;;;;;;;13.93;37.84;102432.63;4409423;32;20125;-70
2022/01/25 12:55:55;;;;;;;79.68;28.92;;;;;;;14.01;37.17;102420.00;4407041;32;20042;-71
2022/01/25 12:58:25;;;;;;;77.37;28.42;;;;;;;13.68;38.27;102415.09;4406570;32;20173;-71
2022/01/25 13:00:55;;;;;;;75.07;28.62;;;;;;;13.84;37.86;102410.47;4406408;32;20380;-71
2022/01/25 13:08:49;;;;;;;84.62;29.25;;;;;;;14.55;36.35;102398.31;3966070;32;15028955;-69
2022/01/25 13:17:17;;;;;;;79.43;28.00;;;;;;;14.28;37.65;102388.97;4435583;32;20087;-70
2022/01/25 13:25:00;;;;;;;75.20;27.70;;;;;;;13.93;38.15;102393.81;3967673;32;15027262;-70
2022/01/25 13:27:32;;;;;;;76.93;27.00;;;;;;;13.93;38.15;102393.81;4415541;32;20501;-69
2022/01/25 13:32:50;;;;;;;81.00;29.87;;;;;;;13.65;38.36;102382.78;4417466;32;20669;-70
2022/01/25 13:45:59;;;;;;;71.28;26.25;;;;;;;13.99;37.12;102391.28;3949313;32;15027167;-70
2022/01/25 13:48:27;;;;;;;71.85;27.17;;;;;;;13.99;37.12;102391.28;4396110;32;20107;-71
2022/01/25 13:50:56;;;;;;;77.22;27.58;;;;;;;13.89;37.74;102384.56;4400873;32;20111;-69
2022/01/25 13:53:23;;;;;;;73.07;26.33;;;;;;;13.94;37.67;102388.94;4398714;32;20771;-69
2022/01/25 13:55:52;;;;;;;68.28;26.23;;;;;;;13.73;37.89;102384.34;4400400;32;20104;-69
2022/01/25 14:01:05;;;;;;;72.37;26.33;;;;;;;14.62;36.54;102387.69;3946409;32;15025882;-70
2022/01/25 14:03:35;;;;;;;68.70;26.92;;;;;;;14.62;36.54;102387.69;4396783;32;20858;-70
2022/01/25 14:06:18;;;;;;;72.82;25.00;;;;;;;14.21;36.80;102387.00;4393326;32;20038;-70
2022/01/25 14:08:45;;;;;;;65.95;25.27;;;;;;;14.09;37.23;102384.72;4396017;32;20749;-70
2022/01/25 14:11:36;;;;;;;72.57;26.48;;;;;;;14.05;37.52;102381.94;4397457;32;20380;-71
2022/01/25 14:28:09;;;;;;;74.78;29.45;;;;;;;14.16;37.18;102378.16;3961417;32;15042532;-70
2022/01/25 14:30:38;;;;;;;81.55;31.45;;;;;;;14.16;37.45;102378.16;4410922;32;20044;-72
2022/01/25 14:35:43;;;;;;;82.28;30.33;;;;;;;14.71;37.00;102384.31;3953672;32;15022050;-69